Time;durP1;ratioP1;P1;durP2;ratioP2;P2;SDS_P1;SDS_P2;PMS_P1;PMS_P2;Temp;Humidity;BMP_temperature;BMP_pressure;BME280_temperature;BME280_humidity;BME280_pressure;Samples;Min_cycle;Max_cycle;Signal;HPM_P1;HPM_P2
2023/01/20 00:01:37;;;;;;;6.57;2.13;;;1.50;97.30;;;;;;4994301;28;20792;-86
2023/01/20 00:04:03;;;;;;;2.60;2.40;;;1.50;97.30;;;;;;4993875;28;20421;-86
2023/01/20 00:06:29;;;;;;;2.70;2.50;;;1.50;97.30;;;;;;4993931;28;20468;-86
2023/01/20 00:08:58;;;;;;;1.80;1.67;;;1.50;97.30;;;;;;5000567;28;20424;-90
2023/01/20 00:11:24;;;;;;;5.43;3.90;;;1.50;97.30;;;;;;5013516;28;20173;-87
2023/01/20 00:13:54;;;;;;;3.33;3.00;;;1.50;97.30;;;;;;5013869;28;20483;-91
2023/01/20 00:16:20;;;;;;;4.70;4.40;;;1.50;97.30;;;;;;4990006;28;20480;-86
2023/01/20 00:18:46;;;;;;;3.30;2.13;;;1.60;97.30;;;;;;4973459;28;21118;-86
2023/01/20 00:21:12;;;;;;;2.80;2.60;;;1.60;97.30;;;;;;4973499;28;20426;-86
2023/01/20 00:23:40;;;;;;;7.37;4.17;;;1.60;97.30;;;;;;4973447;28;20261;-87
2023/01/20 00:26:06;;;;;;;2.53;1.83;;;1.60;97.30;;;;;;4973371;28;20502;-86
2023/01/20 00:28:33;;;;;;;3.17;2.73;;;1.60;97.30;;;;;;4975031;28;20448;-86
2023/01/20 00:31:13;;;;;;;9.90;3.50;;;1.60;97.30;;;;;;4973255;28;20418;-86
2023/01/20 00:33:39;;;;;;;3.07;2.73;;;1.60;97.30;;;;;;4980179;28;20459;-87
2023/01/20 00:36:05;;;;;;;5.73;2.30;;;1.60;97.30;;;;;;4992375;28;20666;-86
2023/01/20 00:38:31;;;;;;;1.67;1.57;;;1.60;97.30;;;;;;4991242;28;21177;-86
2023/01/20 00:40:56;;;;;;;6.90;3.87;;;1.60;97.30;;;;;;4991951;28;20417;-86
2023/01/20 00:43:22;;;;;;;6.60;2.70;;;1.50;97.30;;;;;;4991797;28;20177;-86
2023/01/20 00:45:47;;;;;;;3.43;3.27;;;1.50;97.30;;;;;;4991782;28;20513;-86
2023/01/20 00:48:13;;;;;;;2.23;1.90;;;1.50;97.30;;;;;;4993651;28;20174;-87
2023/01/20 00:50:38;;;;;;;4.57;2.90;;;1.50;97.30;;;;;;4992837;28;20205;-86
2023/01/20 00:53:04;;;;;;;3.70;3.27;;;1.50;97.30;;;;;;4992332;28;20264;-85
2023/01/20 00:55:29;;;;;;;2.20;2.00;;;1.50;97.30;;;;;;4992943;28;20257;-87
2023/01/20 00:57:55;;;;;;;2.60;2.40;;;1.50;97.30;;;;;;4992601;28;20297;-85
2023/01/20 01:00:20;;;;;;;3.47;2.83;;;1.50;97.30;;;;;;4990912;28;20177;-86
2023/01/20 01:02:46;;;;;;;2.67;2.47;;;1.40;97.30;;;;;;4992599;28;20220;-86
2023/01/20 01:05:11;;;;;;;4.13;3.90;;;1.40;97.30;;;;;;4991396;28;20204;-87
2023/01/20 01:07:37;;;;;;;7.50;4.03;;;1.40;97.30;;;;;;4991498;28;20178;-85
2023/01/20 01:10:03;;;;;;;4.63;2.90;;;1.40;97.30;;;;;;4992060;28;20414;-85
2023/01/20 01:12:28;;;;;;;2.83;2.13;;;1.40;97.30;;;;;;4992544;28;20564;-87
2023/01/20 01:14:54;;;;;;;8.13;3.03;;;1.40;97.30;;;;;;4991913;28;20425;-88
2023/01/20 01:17:22;;;;;;;3.27;3.07;;;1.40;97.30;;;;;;4992403;28;20240;-85
2023/01/20 01:19:51;;;;;;;2.60;2.40;;;1.40;97.30;;;;;;4991636;28;20178;-86
2023/01/20 01:22:16;;;;;;;3.23;2.87;;;1.40;97.30;;;;;;4991539;28;20835;-86
2023/01/20 01:24:43;;;;;;;9.00;3.17;;;1.30;97.30;;;;;;4993327;28;20716;-86
2023/01/20 01:27:09;;;;;;;2.37;2.17;;;1.30;97.30;;;;;;4993474;28;20178;-86
2023/01/20 01:29:34;;;;;;;2.63;2.40;;;1.40;97.30;;;;;;4992206;28;20456;-85
2023/01/20 01:32:00;;;;;;;3.63;3.43;;;1.30;97.30;;;;;;4993254;28;20232;-86
2023/01/20 01:34:25;;;;;;;3.10;2.90;;;1.30;97.30;;;;;;4988647;28;20619;-86
2023/01/20 01:36:51;;;;;;;6.33;3.67;;;1.30;97.30;;;;;;4988291;28;20201;-85
2023/01/20 01:39:16;;;;;;;2.70;2.37;;;1.30;97.30;;;;;;4988646;28;20190;-87
2023/01/20 01:41:42;;;;;;;3.03;2.83;;;1.40;97.30;;;;;;4989166;28;20593;-86
2023/01/20 01:44:12;;;;;;;5.20;2.73;;;1.40;97.30;;;;;;4989234;28;20265;-86
2023/01/20 01:46:39;;;;;;;5.53;1.83;;;1.30;97.30;;;;;;5004034;28;20704;-88
2023/01/20 01:49:19;;;;;;;1.50;1.40;;;1.40;97.30;;;;;;4991812;28;20425;-85
2023/01/20 01:52:02;;;;;;;1.80;1.70;;;1.40;97.30;;;;;;4993517;28;20405;-86
2023/01/20 01:54:33;;;;;;;2.07;1.93;;;1.30;97.30;;;;;;4991584;28;20425;-88
2023/01/20 01:57:00;;;;;;;2.53;2.13;;;1.30;97.30;;;;;;4993298;28;20437;-86
2023/01/20 01:59:25;;;;;;;3.47;2.90;;;1.30;97.30;;;;;;4991759;28;20513;-86
2023/01/20 02:01:52;;;;;;;2.43;2.30;;;1.30;97.30;;;;;;4991342;28;20461;-85
2023/01/20 02:04:23;;;;;;;4.23;3.10;;;1.30;97.30;;;;;;4991126;28;20215;-86
2023/01/20 02:06:55;;;;;;;1.80;1.70;;;1.30;97.30;;;;;;4991421;28;20437;-86
2023/01/20 02:09:21;;;;;;;4.43;2.30;;;1.40;97.30;;;;;;4990505;28;20528;-88
2023/01/20 02:11:51;;;;;;;3.43;2.80;;;1.30;97.30;;;;;;4991269;28;20460;-86
2023/01/20 02:14:20;;;;;;;8.73;3.73;;;1.30;97.30;;;;;;4991514;28;20508;-86
2023/01/20 02:17:19;;;;;;;1.63;1.53;;;1.30;97.30;;;;;;4991346;28;20739;-87
2023/01/20 02:20:29;;;;;;;2.20;2.10;;;1.30;97.30;;;;;;4991064;28;20431;-85
2023/01/20 02:23:06;;;;;;;4.20;3.97;;;1.30;97.30;;;;;;4992139;28;20417;-86
2023/01/20 02:25:47;;;;;;;2.50;2.33;;;1.30;97.30;;;;;;4991778;28;20451;-86
2023/01/20 02:28:43;;;;;;;3.27;2.77;;;1.30;97.30;;;;;;4991840;28;20428;-88
2023/01/20 02:31:47;;;;;;;4.13;3.90;;;1.40;97.30;;;;;;4991468;28;20464;-85
2023/01/20 02:34:29;;;;;;;3.80;1.63;;;1.40;97.30;;;;;;4991790;28;20612;-86
2023/01/20 02:37:14;;;;;;;1.80;1.57;;;1.40;97.30;;;;;;4995511;28;20691;-88
2023/01/20 02:39:40;;;;;;;6.23;3.50;;;1.40;97.30;;;;;;4997008;28;20416;-86
2023/01/20 02:42:17;;;;;;;3.10;2.73;;;1.40;97.30;;;;;;4994388;28;20417;-88
2023/01/20 02:44:50;;;;;;;2.63;2.43;;;1.40;97.30;;;;;;4994048;28;20182;-86
2023/01/20 02:47:28;;;;;;;2.27;2.07;;;1.40;97.30;;;;;;5019100;23;20513;-88
2023/01/20 02:50:19;;;;;;;2.73;2.20;;;1.40;97.30;;;;;;5004689;28;20961;-87
2023/01/20 02:52:50;;;;;;;3.20;2.90;;;1.40;97.30;;;;;;4996536;28;20772;-87
2023/01/20 02:55:34;;;;;;;3.03;1.93;;;1.40;97.30;;;;;;4996687;28;20415;-87
2023/01/20 02:58:04;;;;;;;2.67;2.50;;;1.40;97.30;;;;;;4976963;28;20487;-88
2023/01/20 03:00:41;;;;;;;3.57;3.40;;;1.40;97.30;;;;;;4976895;28;20944;-87
2023/01/20 03:03:11;;;;;;;4.20;3.97;;;1.40;97.30;;;;;;4977078;28;20656;-87
2023/01/20 03:05:44;;;;;;;2.77;2.30;;;1.40;97.30;;;;;;4976597;28;20801;-87
2023/01/20 03:08:13;;;;;;;3.30;3.10;;;1.50;97.30;;;;;;4976657;28;20425;-88
2023/01/20 03:10:41;;;;;;;6.57;3.10;;;1.50;97.30;;;;;;4976790;28;20612;-88
2023/01/20 03:13:32;;;;;;;5.23;1.90;;;1.50;97.30;;;;;;4976812;28;20928;-87
2023/01/20 03:16:05;;;;;;;5.27;4.03;;;1.50;97.30;;;;;;4943762;28;20444;-88
2023/01/20 03:18:32;;;;;;;2.07;1.93;;;1.50;97.30;;;;;;4994092;28;20471;-88
2023/01/20 03:20:58;;;;;;;1.33;1.23;;;1.50;97.30;;;;;;4976746;28;20479;-88
2023/01/20 03:23:27;;;;;;;13.50;3.37;;;1.50;97.30;;;;;;4976976;28;20417;-88
2023/01/20 03:25:53;;;;;;;2.70;2.30;;;1.40;97.30;;;;;;4975716;28;20483;-88
2023/01/20 03:28:19;;;;;;;6.60;3.40;;;1.40;97.30;;;;;;4975338;28;20646;-88
2023/01/20 03:30:45;;;;;;;4.73;3.30;;;1.40;97.30;;;;;;4975168;28;20823;-88
2023/01/20 03:33:11;;;;;;;4.30;3.23;;;1.40;97.30;;;;;;4992932;28;20236;-87
2023/01/20 03:35:38;;;;;;;2.33;2.13;;;1.40;97.30;;;;;;4976132;28;20181;-88
2023/01/20 03:38:03;;;;;;;8.53;4.23;;;1.40;97.30;;;;;;4976518;28;20479;-87
2023/01/20 03:40:36;;;;;;;3.20;3.00;;;1.50;97.30;;;;;;4976135;28;20413;-88
2023/01/20 03:43:29;;;;;;;3.23;3.03;;;1.50;97.30;;;;;;4992850;28;20549;-87
2023/01/20 03:46:04;;;;;;;2.20;1.97;;;1.50;97.30;;;;;;4974069;28;20979;-88
2023/01/20 03:48:43;;;;;;;3.10;2.70;;;1.40;97.30;;;;;;4975988;28;20416;-88
2023/01/20 03:51:23;;;;;;;4.40;3.13;;;1.40;97.30;;;;;;4975757;28;20432;-87
2023/01/20 03:53:58;;;;;;;6.10;3.60;;;1.40;97.30;;;;;;4993509;28;20419;-87
2023/01/20 03:56:45;;;;;;;6.23;4.60;;;1.40;97.30;;;;;;4975035;28;20448;-87
2023/01/20 03:59:13;;;;;;;2.80;2.20;;;1.30;97.30;;;;;;4976183;28;20575;-88
2023/01/20 04:01:42;;;;;;;3.33;2.40;;;1.30;97.30;;;;;;4976023;28;20414;-88
2023/01/20 04:04:15;;;;;;;2.53;2.33;;;1.30;97.30;;;;;;4975880;28;20444;-88
2023/01/20 04:06:42;;;;;;;2.17;2.00;;;1.30;97.30;;;;;;4975792;28;20429;-88
2023/01/20 04:09:14;;;;;;;3.37;3.20;;;1.40;97.30;;;;;;4992730;28;20425;-88
2023/01/20 04:11:40;;;;;;;2.83;1.57;;;1.40;97.30;;;;;;4975333;28;20689;-87
2023/01/20 04:14:08;;;;;;;4.57;2.30;;;1.40;97.30;;;;;;4975642;28;20928;-88
2023/01/20 04:16:35;;;;;;;2.30;2.10;;;1.40;97.30;;;;;;4975080;28;20202;-87
2023/01/20 04:19:00;;;;;;;7.17;4.87;;;1.40;97.30;;;;;;4975747;28;20986;-87
2023/01/20 04:21:30;;;;;;;1.77;1.60;;;1.40;97.30;;;;;;4975376;28;20409;-88
2023/01/20 04:24:19;;;;;;;2.50;2.30;;;1.40;97.30;;;;;;4975520;28;20700;-87
2023/01/20 04:26:45;;;;;;;3.13;2.93;;;1.40;97.30;;;;;;4975175;28;20444;-88
2023/01/20 04:29:10;;;;;;;3.00;2.80;;;1.40;97.30;;;;;;4975528;28;20417;-88
2023/01/20 04:31:36;;;;;;;7.23;3.97;;;1.50;97.30;;;;;;4973672;28;20185;-88
2023/01/20 04:34:03;;;;;;;2.90;2.00;;;1.40;97.30;;;;;;4974923;28;20231;-88
2023/01/20 04:36:29;;;;;;;2.90;2.70;;;1.40;97.30;;;;;;4992046;28;20433;-87
2023/01/20 04:38:55;;;;;;;3.20;3.00;;;1.40;97.30;;;;;;4975471;28;20465;-87
2023/01/20 04:41:20;;;;;;;1.73;1.63;;;1.40;97.30;;;;;;4974951;28;20187;-87
2023/01/20 04:43:46;;;;;;;2.03;1.93;;;1.40;97.30;;;;;;4974974;28;20186;-88
2023/01/20 04:46:13;;;;;;;2.57;1.90;;;1.40;97.30;;;;;;4974897;28;20239;-88
2023/01/20 04:48:39;;;;;;;4.57;4.27;;;1.40;97.30;;;;;;4975284;28;20429;-88
2023/01/20 04:51:05;;;;;;;5.60;2.93;;;1.40;97.30;;;;;;4974930;28;20425;-88
2023/01/20 04:53:31;;;;;;;4.10;3.87;;;1.50;97.30;;;;;;4974641;28;20528;-88
2023/01/20 04:55:56;;;;;;;21.37;4.53;;;1.50;97.30;;;;;;4975822;28;20487;-87
2023/01/20 04:58:22;;;;;;;3.70;3.57;;;1.40;97.30;;;;;;4973201;28;20206;-87
2023/01/20 05:00:47;;;;;;;3.23;2.60;;;1.40;97.30;;;;;;4975212;28;20171;-88
2023/01/20 05:03:13;;;;;;;4.93;2.80;;;1.40;97.30;;;;;;4975153;28;20229;-88
2023/01/20 05:05:38;;;;;;;6.43;4.93;;;1.40;97.30;;;;;;4957622;28;20704;-87
2023/01/20 05:08:04;;;;;;;2.13;1.83;;;1.40;97.30;;;;;;4957979;28;20696;-88
2023/01/20 05:10:33;;;;;;;3.40;2.70;;;1.40;97.30;;;;;;4957088;28;20185;-88
2023/01/20 05:12:59;;;;;;;1.90;1.80;;;1.40;97.30;;;;;;4957577;28;20193;-88
2023/01/20 05:15:26;;;;;;;1.53;1.40;;;1.40;97.30;;;;;;4974715;28;20464;-87
2023/01/20 05:17:51;;;;;;;2.77;2.50;;;1.40;97.30;;;;;;4957425;28;20545;-88
2023/01/20 05:20:19;;;;;;;4.93;2.80;;;1.40;97.30;;;;;;4955785;28;20505;-88
2023/01/20 05:22:44;;;;;;;3.30;2.70;;;1.40;97.30;;;;;;4955957;28;20249;-88
2023/01/20 05:25:10;;;;;;;2.33;2.20;;;1.40;97.30;;;;;;4956309;28;20702;-88
2023/01/20 05:27:36;;;;;;;5.10;2.90;;;1.30;97.30;;;;;;4973861;28;20700;-87
2023/01/20 05:30:03;;;;;;;3.63;3.00;;;1.30;97.30;;;;;;4967017;28;20256;-88
2023/01/20 05:32:29;;;;;;;3.20;3.00;;;1.30;97.30;;;;;;4975122;28;20592;-88
2023/01/20 05:34:54;;;;;;;6.10;3.77;;;1.30;97.30;;;;;;4967631;28;20854;-88
2023/01/20 05:37:20;;;;;;;4.17;3.43;;;1.30;97.30;;;;;;4972133;28;20206;-88
2023/01/20 05:39:45;;;;;;;4.53;3.40;;;1.30;97.30;;;;;;4954920;28;20175;-88
2023/01/20 05:42:11;;;;;;;3.80;3.60;;;1.30;97.30;;;;;;4955403;28;20187;-88
2023/01/20 05:44:36;;;;;;;2.27;2.07;;;1.40;97.30;;;;;;4955298;28;20174;-88
2023/01/20 05:47:01;;;;;;;2.33;2.13;;;1.40;97.30;;;;;;4962916;28;20241;-88
2023/01/20 05:49:27;;;;;;;5.70;4.17;;;1.40;97.30;;;;;;4954634;28;20197;-87
2023/01/20 05:51:53;;;;;;;2.70;1.50;;;1.40;97.30;;;;;;4954235;28;20185;-88
2023/01/20 05:54:18;;;;;;;2.43;2.23;;;1.30;97.30;;;;;;4954702;28;20189;-88
2023/01/20 05:56:46;;;;;;;2.30;2.10;;;1.30;97.30;;;;;;4954574;28;20202;-87
2023/01/20 05:59:11;;;;;;;1.90;1.80;;;1.30;97.30;;;;;;4954500;28;20299;-88
2023/01/20 06:01:37;;;;;;;2.47;2.30;;;1.30;97.30;;;;;;4954679;28;20418;-88
2023/01/20 06:04:03;;;;;;;1.50;1.40;;;1.30;97.30;;;;;;4952137;28;20178;-87
2023/01/20 06:06:36;;;;;;;1.80;1.70;;;1.30;97.30;;;;;;4951722;28;20434;-87
2023/01/20 06:09:02;;;;;;;1.93;1.83;;;1.30;97.30;;;;;;4987024;28;20600;-87
2023/01/20 06:11:30;;;;;;;14.83;3.73;;;1.30;97.30;;;;;;4988664;28;20417;-87
2023/01/20 06:13:56;;;;;;;3.40;2.93;;;1.30;97.30;;;;;;4989075;28;20417;-87
2023/01/20 06:16:24;;;;;;;2.57;2.37;;;1.30;97.30;;;;;;4988737;28;20445;-87
2023/01/20 06:18:53;;;;;;;4.13;3.53;;;1.30;97.30;;;;;;4990316;28;20560;-87
2023/01/20 06:21:39;;;;;;;;;;;;;;;;;;;;;
2023/01/20 06:24:05;;;;;;;2.77;2.30;;;1.30;97.30;;;;;;4992348;28;20908;-87
2023/01/20 06:26:33;;;;;;;6.13;3.53;;;1.30;97.30;;;;;;4990408;28;20441;-87
2023/01/20 06:29:02;;;;;;;2.20;2.00;;;1.30;97.30;;;;;;4991200;28;20479;-87
2023/01/20 06:31:36;;;;;;;4.60;2.60;;;1.30;97.30;;;;;;4977571;28;20441;-88
2023/01/20 06:34:02;;;;;;;2.60;2.40;;;1.30;97.30;;;;;;4954862;28;20504;-87
2023/01/20 06:36:35;;;;;;;2.13;1.97;;;1.30;97.30;;;;;;4970558;28;20645;-87
2023/01/20 06:39:04;;;;;;;8.23;3.77;;;1.30;97.30;;;;;;4954517;28;20514;-87
2023/01/20 06:41:33;;;;;;;7.80;2.20;;;1.30;97.30;;;;;;4954514;28;20422;-88
2023/01/20 06:44:06;;;;;;;3.63;2.03;;;1.20;97.30;;;;;;4954911;28;20421;-88
2023/01/20 06:46:32;;;;;;;1.83;1.73;;;1.20;97.30;;;;;;4954157;28;20528;-89
2023/01/20 06:51:54;;;;;;;2.87;1.87;;;1.20;97.30;;;;;;4964930;28;20469;-88
2023/01/20 06:54:22;;;;;;;5.30;3.90;;;1.20;97.30;;;;;;4971397;28;20507;-88
2023/01/20 06:56:53;;;;;;;2.90;1.77;;;1.20;97.30;;;;;;4970833;28;20445;-88
2023/01/20 06:59:23;;;;;;;4.30;2.50;;;1.30;97.30;;;;;;4972327;28;20501;-87
2023/01/20 07:01:51;;;;;;;18.33;6.83;;;1.30;97.30;;;;;;4955140;28;20519;-87
2023/01/20 07:04:17;;;;;;;4.70;4.40;;;1.30;97.30;;;;;;4958943;28;20426;-87
2023/01/20 07:06:42;;;;;;;3.90;2.20;;;1.20;97.30;;;;;;4954266;28;20855;-86
2023/01/20 07:09:12;;;;;;;6.00;2.73;;;1.30;97.30;;;;;;4970100;28;20190;-89
2023/01/20 07:11:37;;;;;;;2.80;2.60;;;1.30;97.30;;;;;;4971901;28;20174;-89
2023/01/20 07:14:04;;;;;;;3.70;3.50;;;1.30;97.30;;;;;;4969998;28;20414;-89
2023/01/20 07:16:30;;;;;;;1.50;1.40;;;1.30;97.30;;;;;;4969364;28;20198;-88
2023/01/20 07:18:55;;;;;;;3.43;3.23;;;1.20;97.30;;;;;;4971132;28;20559;-89
2023/01/20 07:21:21;;;;;;;3.07;2.87;;;1.20;97.30;;;;;;4978792;28;20188;-89
2023/01/20 07:23:47;;;;;;;5.33;3.83;;;1.20;97.30;;;;;;4965010;28;20194;-86
2023/01/20 07:26:19;;;;;;;3.30;2.63;;;1.20;97.30;;;;;;4958296;28;20685;-86
2023/01/20 07:28:45;;;;;;;2.67;2.47;;;1.10;97.30;;;;;;4974776;28;20410;-88
2023/01/20 07:31:13;;;;;;;7.70;3.87;;;1.10;97.30;;;;;;4957437;28;20429;-89
2023/01/20 07:33:38;;;;;;;2.40;2.20;;;1.10;97.30;;;;;;4962140;28;20425;-89
2023/01/20 07:36:06;;;;;;;11.30;4.27;;;1.20;97.30;;;;;;4974920;28;20461;-89
2023/01/20 07:38:32;;;;;;;3.10;2.90;;;1.20;97.30;;;;;;4958157;28;20604;-89
2023/01/20 07:41:03;;;;;;;4.07;3.87;;;1.20;97.30;;;;;;4975269;28;20941;-88
2023/01/20 07:43:28;;;;;;;3.67;3.03;;;1.20;97.30;;;;;;4960998;28;20957;-89
2023/01/20 07:45:58;;;;;;;3.37;2.37;;;1.20;97.30;;;;;;4975682;28;20434;-88
2023/01/20 07:48:25;;;;;;;3.97;3.77;;;1.20;97.30;;;;;;4958733;28;20213;-88
2023/01/20 07:51:00;;;;;;;2.90;2.70;;;1.20;97.30;;;;;;4957077;28;20422;-88
2023/01/20 07:53:27;;;;;;;3.57;3.30;;;1.20;97.30;;;;;;4957511;28;20422;-88
2023/01/20 07:55:52;;;;;;;2.63;2.43;;;1.20;97.30;;;;;;4975360;28;20434;-88
2023/01/20 07:58:17;;;;;;;3.30;3.10;;;1.20;97.30;;;;;;4957492;28;20469;-88
2023/01/20 08:00:47;;;;;;;4.27;4.00;;;1.20;97.30;;;;;;4974714;28;20187;-88
2023/01/20 08:03:13;;;;;;;1.53;1.43;;;1.30;97.30;;;;;;4957300;28;20195;-88
2023/01/20 08:05:38;;;;;;;3.73;2.80;;;1.30;97.30;;;;;;4957417;28;20593;-88
2023/01/20 08:08:04;;;;;;;3.03;2.83;;;1.30;97.30;;;;;;4957385;28;20190;-88
2023/01/20 08:10:30;;;;;;;2.13;1.97;;;1.30;97.30;;;;;;4957250;28;20811;-88
2023/01/20 08:12:56;;;;;;;5.80;4.30;;;1.40;97.30;;;;;;4974806;28;20670;-88
2023/01/20 08:15:22;;;;;;;2.70;2.50;;;1.40;97.30;;;;;;4957387;28;20190;-88
2023/01/20 08:17:52;;;;;;;5.27;3.13;;;1.40;97.30;;;;;;4964131;28;20556;-87
2023/01/20 08:20:22;;;;;;;3.60;2.93;;;1.50;97.30;;;;;;4971878;28;20190;-86
2023/01/20 08:22:50;;;;;;;4.73;3.73;;;1.50;97.30;;;;;;4977043;28;20799;-86
2023/01/20 08:25:15;;;;;;;11.10;4.53;;;1.50;97.30;;;;;;4976308;28;20413;-88
2023/01/20 08:27:41;;;;;;;2.90;2.70;;;1.50;97.30;;;;;;4976758;28;20452;-88
2023/01/20 08:30:12;;;;;;;2.73;2.53;;;1.50;97.30;;;;;;4977002;28;20213;-88
2023/01/20 08:32:41;;;;;;;3.37;2.67;;;1.50;97.30;;;;;;4976839;28;20178;-88
2023/01/20 08:35:12;;;;;;;2.77;2.23;;;1.50;97.30;;;;;;4968951;28;20426;-88
2023/01/20 08:37:41;;;;;;;7.33;3.43;;;1.50;97.30;;;;;;4956396;28;21004;-86
2023/01/20 08:40:10;;;;;;;6.70;3.63;;;1.50;97.30;;;;;;4957106;28;20414;-86
2023/01/20 08:42:41;;;;;;;16.43;6.93;;;1.50;97.30;;;;;;4956887;28;20866;-88
2023/01/20 08:45:12;;;;;;;14.70;3.30;;;1.50;97.30;;;;;;4957162;28;20425;-87
2023/01/20 08:47:44;;;;;;;2.60;2.40;;;1.50;97.30;;;;;;4960852;28;20504;-88
2023/01/20 08:50:11;;;;;;;3.87;3.33;;;1.60;97.30;;;;;;5008111;23;20499;-86
2023/01/20 08:52:37;;;;;;;2.80;2.60;;;1.60;97.30;;;;;;5007146;28;20420;-85
2023/01/20 08:55:03;;;;;;;2.73;2.00;;;1.70;97.30;;;;;;5017441;28;20403;-87
2023/01/20 08:57:28;;;;;;;3.03;2.83;;;1.70;97.30;;;;;;5015825;28;20213;-87
2023/01/20 08:59:54;;;;;;;7.57;3.10;;;1.60;97.30;;;;;;5017141;28;20227;-85
2023/01/20 09:02:21;;;;;;;4.70;3.53;;;1.70;97.30;;;;;;4999614;28;20575;-85
2023/01/20 09:04:48;;;;;;;4.90;2.27;;;1.70;97.30;;;;;;4999735;28;20215;-85
2023/01/20 09:07:15;;;;;;;6.73;3.27;;;1.80;97.30;;;;;;5015976;28;20478;-85
2023/01/20 09:09:41;;;;;;;2.20;2.03;;;1.90;97.30;;;;;;4998605;28;20444;-86
2023/01/20 09:12:06;;;;;;;7.20;6.00;;;1.90;97.30;;;;;;5000277;28;20476;-84
2023/01/20 09:14:32;;;;;;;2.50;2.30;;;2.10;97.30;;;;;;4999231;28;20596;-86
2023/01/20 09:16:59;;;;;;;4.97;2.93;;;2.20;97.30;;;;;;5000257;28;20181;-85
2023/01/20 09:19:24;;;;;;;6.00;3.40;;;2.30;97.30;;;;;;4999817;28;20197;-87
2023/01/20 09:21:50;;;;;;;9.13;2.70;;;2.40;97.30;;;;;;5000112;28;20409;-84
2023/01/20 09:24:18;;;;;;;5.03;3.57;;;2.40;97.30;;;;;;4994145;28;20565;-87
2023/01/20 09:26:44;;;;;;;2.97;2.77;;;2.40;97.30;;;;;;4979572;28;20177;-88
2023/01/20 09:29:20;;;;;;;8.10;2.90;;;2.40;97.30;;;;;;4981218;28;20413;-85
2023/01/20 09:31:56;;;;;;;5.40;5.10;;;2.50;97.30;;;;;;4980778;28;20652;-86
2023/01/20 09:34:23;;;;;;;2.80;2.27;;;2.50;97.30;;;;;;4977197;28;20426;-87
2023/01/20 09:43:52;;;;;;;8.63;3.17;;;2.50;97.30;;;;;;4961186;28;20429;-85
2023/01/20 09:45:57;;;;;;;7.40;4.23;;;2.50;97.30;;;;;;4978337;28;20409;-88
2023/01/20 09:54:54;;;;;;;1.80;1.70;;;2.50;97.30;;;;;;4973928;28;20491;-85
2023/01/20 09:57:26;;;;;;;11.43;4.73;;;2.50;97.30;;;;;;4958765;28;20430;-87
2023/01/20 10:00:01;;;;;;;3.50;3.30;;;2.50;97.30;;;;;;4958943;28;20834;-86
2023/01/20 10:02:33;;;;;;;2.67;2.07;;;2.40;97.30;;;;;;4975809;28;20417;-85
2023/01/20 10:05:06;;;;;;;3.20;3.00;;;2.40;97.30;;;;;;4959407;28;20789;-85
2023/01/20 10:08:14;;;;;;;6.20;3.43;;;2.50;97.30;;;;;;4959628;28;20525;-85
2023/01/20 10:11:05;;;;;;;10.00;4.00;;;2.60;97.30;;;;;;4959090;28;20446;-86
2023/01/20 10:13:37;;;;;;;14.53;4.30;;;2.70;97.30;;;;;;4960172;28;20479;-86
2023/01/20 10:16:11;;;;;;;3.63;3.43;;;2.70;97.30;;;;;;4959661;28;20537;-85
2023/01/20 10:18:59;;;;;;;1.67;1.57;;;2.70;97.30;;;;;;4959003;28;20558;-86
2023/01/20 10:21:34;;;;;;;7.10;3.50;;;2.70;97.30;;;;;;4959039;28;20510;-87
2023/01/20 10:24:09;;;;;;;4.03;3.80;;;2.70;97.30;;;;;;4959730;28;20485;-87
2023/01/20 10:27:02;;;;;;;3.17;2.67;;;2.70;97.30;;;;;;4959888;28;20822;-84
2023/01/20 10:29:36;;;;;;;2.73;2.43;;;2.70;97.30;;;;;;4957735;28;20434;-86
2023/01/20 10:32:09;;;;;;;2.37;2.17;;;2.80;97.30;;;;;;4960603;28;20587;-85
2023/01/20 10:34:45;;;;;;;4.53;4.20;;;2.80;97.30;;;;;;4965553;28;20460;-86
2023/01/20 10:37:14;;;;;;;11.00;3.03;;;2.70;97.30;;;;;;4978683;28;20479;-87
2023/01/20 10:39:51;;;;;;;4.57;3.27;;;2.70;97.30;;;;;;4978633;28;20445;-85
2023/01/20 10:42:18;;;;;;;6.37;4.47;;;2.80;97.30;;;;;;4979673;28;20932;-85
2023/01/20 10:44:46;;;;;;;4.13;3.90;;;2.80;97.30;;;;;;4996329;28;20409;-86
2023/01/20 10:47:34;;;;;;;2.73;2.53;;;2.80;97.30;;;;;;4973270;28;20492;-86
2023/01/20 10:50:27;;;;;;;4.47;3.67;;;2.70;97.30;;;;;;4977132;28;20476;-85
2023/01/20 10:53:09;;;;;;;3.43;1.83;;;2.70;97.30;;;;;;4965094;28;20930;-85
2023/01/20 10:56:04;;;;;;;9.13;2.70;;;2.70;97.30;;;;;;4977957;28;20409;-85
2023/01/20 10:58:32;;;;;;;2.90;2.70;;;2.80;97.30;;;;;;4980985;28;20496;-84
2023/01/20 11:01:02;;;;;;;3.10;2.90;;;2.80;97.30;;;;;;4982244;28;20915;-86
2023/01/20 11:03:34;;;;;;;4.67;3.50;;;2.80;97.30;;;;;;4982885;28;20413;-87
2023/01/20 11:06:00;;;;;;;4.20;2.60;;;2.80;97.30;;;;;;4983332;28;20441;-85
2023/01/20 11:08:29;;;;;;;4.60;4.30;;;2.90;97.30;;;;;;4981991;28;20428;-85
2023/01/20 11:11:08;;;;;;;8.07;3.70;;;2.90;97.30;;;;;;4982272;28;20433;-87
2023/01/20 11:13:34;;;;;;;7.60;4.27;;;3.00;97.30;;;;;;4981506;28;20455;-86
2023/01/20 11:16:03;;;;;;;17.77;4.60;;;3.10;97.30;;;;;;4981374;28;20920;-87
2023/01/20 11:18:30;;;;;;;29.77;3.90;;;3.10;97.30;;;;;;4977815;28;20285;-85
2023/01/20 11:21:00;;;;;;;3.50;3.30;;;3.30;97.30;;;;;;4979168;28;20444;-87
2023/01/20 11:23:38;;;;;;;4.33;2.60;;;3.40;97.30;;;;;;4993636;28;20421;-88
2023/01/20 11:26:32;;;;;;;5.63;5.33;;;3.40;97.30;;;;;;4987903;28;20428;-86
2023/01/20 11:29:00;;;;;;;5.87;2.90;;;3.50;97.30;;;;;;4971706;28;20430;-84
2023/01/20 11:31:51;;;;;;;3.70;3.23;;;3.60;97.30;;;;;;4982209;28;20446;-87
2023/01/20 11:34:30;;;;;;;2.50;2.30;;;3.60;97.30;;;;;;4992052;28;21002;-90
2023/01/20 11:37:04;;;;;;;3.20;3.00;;;3.60;97.30;;;;;;4974726;28;20429;-85
2023/01/20 11:40:02;;;;;;;13.30;5.83;;;3.70;97.30;;;;;;4961388;28;20838;-87
2023/01/20 11:42:39;;;;;;;7.30;3.57;;;3.70;97.30;;;;;;4949848;28;20422;-85
2023/01/20 11:45:24;;;;;;;4.00;3.00;;;3.80;97.30;;;;;;4992574;28;20417;-85
2023/01/20 11:48:00;;;;;;;4.23;3.27;;;3.80;97.30;;;;;;4981172;28;20468;-86
2023/01/20 11:50:34;;;;;;;8.70;5.00;;;3.90;97.30;;;;;;4979628;28;20484;-85
2023/01/20 11:53:25;;;;;;;6.33;2.53;;;3.90;97.30;;;;;;4980561;28;20592;-87
2023/01/20 11:55:57;;;;;;;4.93;4.37;;;4.00;97.30;;;;;;4996599;28;20421;-86
2023/01/20 11:58:26;;;;;;;3.13;2.93;;;4.00;97.30;;;;;;4995452;28;20483;-85
2023/01/20 12:01:05;;;;;;;6.40;3.77;;;3.90;97.30;;;;;;4978363;28;20465;-85
2023/01/20 12:04:04;;;;;;;6.60;4.13;;;4.00;97.30;;;;;;4977281;28;20472;-85
2023/01/20 12:06:44;;;;;;;2.90;2.70;;;4.00;97.30;;;;;;4977281;28;20421;-85
2023/01/20 12:09:16;;;;;;;4.13;2.97;;;4.10;97.30;;;;;;4977375;28;20464;-86
2023/01/20 12:11:50;;;;;;;3.63;3.47;;;4.20;97.30;;;;;;4985681;28;20431;-86
2023/01/20 12:14:27;;;;;;;5.60;3.30;;;4.20;97.30;;;;;;4978512;28;20468;-86
2023/01/20 12:17:01;;;;;;;4.53;2.63;;;4.20;97.30;;;;;;4977444;28;20417;-85
2023/01/20 12:19:57;;;;;;;4.93;4.70;;;4.20;97.30;;;;;;4977525;28;20712;-86
2023/01/20 12:22:37;;;;;;;9.17;4.83;;;4.10;97.30;;;;;;4995935;28;20920;-86
2023/01/20 12:25:15;;;;;;;2.70;2.50;;;4.00;97.30;;;;;;4978686;28;20417;-86
2023/01/20 12:28:04;;;;;;;7.50;4.20;;;4.00;97.30;;;;;;4978368;28;20455;-86
2023/01/20 12:31:06;;;;;;;3.93;2.60;;;3.90;97.30;;;;;;4996421;28;20436;-88
2023/01/20 12:33:41;;;;;;;1.97;1.83;;;3.90;97.30;;;;;;4947972;28;20432;-85
2023/01/20 12:36:23;;;;;;;4.23;3.97;;;4.00;97.30;;;;;;4979434;28;20430;-85
2023/01/20 12:39:16;;;;;;;6.17;4.83;;;4.00;97.30;;;;;;4979002;28;20781;-85
2023/01/20 12:42:06;;;;;;;4.17;3.67;;;4.00;97.30;;;;;;4978951;28;20423;-87
2023/01/20 12:44:57;;;;;;;2.53;2.33;;;4.00;97.30;;;;;;4978675;28;20781;-86
2023/01/20 12:47:30;;;;;;;3.03;2.83;;;4.00;97.30;;;;;;4978588;28;20421;-87
2023/01/20 12:50:01;;;;;;;9.03;5.40;;;4.00;97.30;;;;;;4978360;28;20472;-85
2023/01/20 12:52:55;;;;;;;6.33;4.73;;;3.90;97.30;;;;;;4979380;28;20456;-85
2023/01/20 12:55:23;;;;;;;7.20;3.00;;;3.90;97.30;;;;;;4940344;28;20413;-85
2023/01/20 12:58:22;;;;;;;6.83;6.43;;;3.90;97.30;;;;;;4979188;28;20487;-85
2023/01/20 13:01:12;;;;;;;4.53;3.60;;;3.90;97.30;;;;;;4980284;28;20444;-86
2023/01/20 13:04:21;;;;;;;5.33;5.03;;;3.90;97.30;;;;;;4980183;28;20449;-86
2023/01/20 13:07:23;;;;;;;6.23;3.03;;;3.90;97.30;;;;;;4998135;28;20413;-86
2023/01/20 13:10:16;;;;;;;4.63;2.53;;;3.90;97.30;;;;;;4979958;28;20437;-85
2023/01/20 13:13:05;;;;;;;5.10;3.17;;;3.90;97.30;;;;;;4981005;28;20421;-85
2023/01/20 13:15:44;;;;;;;4.23;2.90;;;3.90;97.30;;;;;;4980497;28;20516;-87
2023/01/20 13:18:28;;;;;;;4.70;3.90;;;3.90;97.30;;;;;;4979928;28;20480;-84
2023/01/20 13:20:54;;;;;;;6.80;3.30;;;3.80;97.30;;;;;;4978808;28;20534;-88
2023/01/20 13:23:46;;;;;;;3.10;2.90;;;3.80;97.30;;;;;;4978776;28;20417;-85
2023/01/20 13:26:13;;;;;;;4.30;3.73;;;3.80;97.30;;;;;;4976698;28;20413;-85
2023/01/20 13:28:49;;;;;;;5.03;4.77;;;3.70;97.30;;;;;;4996816;28;20413;-86
2023/01/20 13:31:31;;;;;;;7.83;4.90;;;3.70;97.30;;;;;;4996527;28;20432;-86
2023/01/20 13:34:22;;;;;;;7.57;4.70;;;3.70;97.30;;;;;;4997298;28;20413;-86
2023/01/20 13:37:03;;;;;;;3.20;3.00;;;3.70;97.30;;;;;;4976493;28;20428;-85
2023/01/20 13:39:28;;;;;;;2.67;2.50;;;3.70;97.30;;;;;;4960443;28;20557;-88